Time;durP1;ratioP1;P1;durP2;ratioP2;P2;SDS_P1;SDS_P2;PMS_P1;PMS_P2;Temp;Humidity;BMP_temperature;BMP_pressure;BME280_temperature;BME280_humidity;BME280_pressure;Samples;Min_cycle;Max_cycle;Signal;HPM_P1;HPM_P2
2023/11/03 00:00:56;;;;;;;2.40;1.80;;;;;;;18.94;60.56;96892.56;103509;1280;73021;-39
2023/11/03 00:03:23;;;;;;;2.40;2.00;;;;;;;18.94;60.67;96895.44;103498;1282;62104;-40
2023/11/03 00:05:49;;;;;;;2.60;1.70;;;;;;;18.94;60.62;96889.93;103668;1279;62207;-40
2023/11/03 00:08:17;;;;;;;3.30;1.80;;;;;;;18.94;60.62;96889.23;103425;1282;75449;-40
2023/11/03 00:10:44;;;;;;;2.30;1.70;;;;;;;18.93;60.66;96891.79;103835;1280;65733;-40
2023/11/03 00:13:10;;;;;;;2.10;1.70;;;;;;;18.93;60.70;96891.79;103868;1282;72460;-39
2023/11/03 00:15:37;;;;;;;4.10;1.90;;;;;;;18.92;60.67;96893.41;103960;1282;62081;-39
2023/11/03 00:18:04;;;;;;;2.10;1.90;;;;;;;18.92;60.66;96890.14;103806;1280;62142;-39
2023/11/03 00:20:30;;;;;;;1.80;1.50;;;;;;;18.92;60.64;96887.80;104010;1280;75400;-39
2023/11/03 00:22:57;;;;;;;1.90;1.60;;;;;;;18.90;60.63;96883.38;103833;1283;66318;-38
2023/11/03 00:25:23;;;;;;;1.60;1.50;;;;;;;18.91;60.69;96880.30;104321;1279;72527;-38
2023/11/03 00:27:50;;;;;;;1.90;1.60;;;;;;;18.90;60.62;96876.56;103769;1283;62015;-38
2023/11/03 00:30:18;;;;;;;1.80;1.70;;;;;;;18.89;60.63;96868.95;103704;1282;62133;-38
2023/11/03 00:32:44;;;;;;;1.70;1.60;;;;;;;18.90;60.65;96870.03;103527;1282;75239;-38
2023/11/03 00:35:11;;;;;;;2.00;1.70;;;;;;;18.90;60.63;96873.38;103605;1280;66143;-38
2023/11/03 00:37:38;;;;;;;2.10;1.70;;;;;;;18.89;60.65;96865.77;103557;1280;72943;-38
2023/11/03 00:40:08;;;;;;;1.80;1.70;;;;;;;18.88;60.67;96863.83;103869;1282;62108;-38
2023/11/03 00:42:36;;;;;;;1.70;1.60;;;;;;;18.88;60.67;96862.36;103870;1280;62081;-38
2023/11/03 00:45:04;;;;;;;2.10;1.70;;;;;;;18.88;60.67;96855.45;103563;1282;75354;-40
2023/11/03 00:47:31;;;;;;;2.00;1.80;;;;;;;18.87;60.75;96849.62;103503;1280;65238;-38
2023/11/03 00:49:59;;;;;;;2.60;1.80;;;;;;;18.85;60.65;96850.23;103502;1280;72475;-38
2023/11/03 00:52:25;;;;;;;2.70;2.00;;;;;;;18.86;60.62;96848.37;103582;1282;62108;-38
2023/11/03 00:54:52;;;;;;;2.00;1.70;;;;;;;18.86;60.61;96852.64;103403;1280;62213;-38
2023/11/03 00:57:18;;;;;;;1.50;1.40;;;;;;;18.86;60.59;96852.48;103698;1280;75928;-39
2023/11/03 00:59:45;;;;;;;1.90;1.60;;;;;;;18.85;60.61;96844.65;105245;1282;61967;-40
2023/11/03 01:02:14;;;;;;;2.10;1.90;;;;;;;18.85;60.60;96842.08;103797;1280;72442;-39
2023/11/03 01:04:40;;;;;;;2.20;1.70;;;;;;;18.85;60.58;96841.08;103809;1279;62117;-41
2023/11/03 01:07:07;;;;;;;1.80;1.60;;;;;;;18.85;60.62;96843.79;103737;1280;62235;-41
2023/11/03 01:09:34;;;;;;;2.70;1.90;;;;;;;18.86;60.57;96840.23;103831;1282;75266;-39
2023/11/03 01:12:01;;;;;;;1.90;1.70;;;;;;;18.84;60.56;96835.16;103863;1280;66225;-39
2023/11/03 01:14:32;;;;;;;1.90;1.60;;;;;;;18.84;60.53;96833.63;103840;1280;72488;-39
2023/11/03 01:17:00;;;;;;;1.80;1.60;;;;;;;18.85;60.52;96829.75;103746;1280;61979;-38
2023/11/03 01:19:28;;;;;;;2.00;1.80;;;;;;;18.84;60.57;96820.13;103791;1280;62229;-38
2023/11/03 01:21:55;;;;;;;2.50;1.80;;;;;;;18.84;60.53;96817.34;103857;1281;75494;-38
2023/11/03 01:24:22;;;;;;;2.10;1.90;;;;;;;18.84;60.60;96823.63;103777;1282;66344;-38
2023/11/03 01:26:48;;;;;;;2.00;1.80;;;;;;;18.83;60.55;96819.04;103802;1280;72546;-38
2023/11/03 01:29:14;;;;;;;1.90;1.70;;;;;;;18.83;60.50;96819.81;103851;1280;62076;-38
2023/11/03 01:31:41;;;;;;;3.70;1.80;;;;;;;18.83;60.61;96810.45;103825;1282;61964;-38
2023/11/03 01:34:07;;;;;;;2.00;1.60;;;;;;;18.83;60.57;96804.93;103697;1282;62186;-38
2023/11/03 01:36:35;;;;;;;2.60;2.20;;;;;;;18.82;60.62;96802.36;103867;1282;66198;-38
2023/11/03 01:39:05;;;;;;;1.90;1.70;;;;;;;18.82;60.53;96804.69;103799;1280;72799;-38
2023/11/03 01:41:32;;;;;;;2.10;1.90;;;;;;;18.81;60.53;96804.23;103698;1282;62173;-39
2023/11/03 01:44:06;;;;;;;2.00;1.80;;;;;;;18.81;60.48;96803.52;103642;1280;62123;-38
2023/11/03 01:46:34;;;;;;;1.80;1.70;;;;;;;18.81;60.62;96804.76;103449;1282;74283;-38
2023/11/03 01:49:00;;;;;;;2.20;1.80;;;;;;;18.81;60.55;96806.69;103666;1282;66348;-38
2023/11/03 01:51:27;;;;;;;2.20;1.80;;;;;;;18.81;60.58;96804.68;103818;1280;72464;-38
2023/11/03 01:53:53;;;;;;;2.30;1.90;;;;;;;18.80;60.45;96803.04;103430;1285;62131;-38
2023/11/03 01:56:20;;;;;;;2.50;1.90;;;;;;;18.80;60.53;96798.86;103488;1280;62205;-38
2023/11/03 01:58:47;;;;;;;1.90;1.70;;;;;;;18.80;60.50;96798.01;103320;1280;75251;-38
2023/11/03 02:01:13;;;;;;;2.40;2.00;;;;;;;18.81;60.45;96797.77;103465;1285;66213;-38
2023/11/03 02:03:40;;;;;;;2.00;1.80;;;;;;;18.81;60.47;96797.93;103673;1279;72662;-38
2023/11/03 02:06:07;;;;;;;1.90;1.70;;;;;;;18.80;60.54;96799.56;103886;1282;62088;-37
2023/11/03 02:08:34;;;;;;;2.30;1.60;;;;;;;18.80;60.56;96802.73;103573;1279;62114;-38
2023/11/03 02:11:01;;;;;;;2.30;1.80;;;;;;;18.80;60.39;96807.00;103398;1283;75453;-40
2023/11/03 02:13:34;;;;;;;4.20;1.80;;;;;;;18.80;60.36;96808.48;103475;1280;66254;-38
2023/11/03 02:16:01;;;;;;;2.20;1.70;;;;;;;18.80;60.39;96811.33;103413;1280;72624;-38
2023/11/03 02:18:29;;;;;;;2.00;1.80;;;;;;;18.80;60.39;96804.27;103388;1282;62101;-39
2023/11/03 02:20:56;;;;;;;1.70;1.60;;;;;;;18.79;60.52;96799.46;103399;1281;62149;-38
2023/11/03 02:23:23;;;;;;;1.90;1.70;;;;;;;18.79;60.34;96802.50;103479;1280;75230;-38
2023/11/03 02:25:49;;;;;;;3.00;2.00;;;;;;;18.79;60.48;96808.39;103470;1282;66273;-38
2023/11/03 02:28:16;;;;;;;2.20;1.80;;;;;;;18.79;60.34;96809.00;103844;1280;72635;-38
2023/11/03 02:30:42;;;;;;;1.70;1.60;;;;;;;18.79;60.40;96803.96;103754;1282;62099;-38
2023/11/03 02:33:09;;;;;;;2.60;1.90;;;;;;;18.79;60.34;96802.27;103640;1280;62105;-38
2023/11/03 02:35:36;;;;;;;1.70;1.60;;;;;;;18.78;60.31;96803.18;103587;1285;75518;-38
2023/11/03 02:38:02;;;;;;;1.90;1.70;;;;;;;18.79;60.39;96804.35;103822;1282;62187;-38
2023/11/03 02:40:29;;;;;;;1.90;1.70;;;;;;;18.78;60.29;96804.27;103882;1280;72567;-38
2023/11/03 02:42:55;;;;;;;1.90;1.70;;;;;;;18.78;60.29;96803.25;103842;1280;62447;-38
2023/11/03 02:45:22;;;;;;;2.90;1.80;;;;;;;18.79;60.42;96805.59;103779;1280;62120;-38
2023/11/03 02:47:49;;;;;;;3.70;1.70;;;;;;;18.77;60.37;96796.49;103842;1282;75479;-38
2023/11/03 02:50:15;;;;;;;2.20;1.90;;;;;;;18.78;60.32;96790.08;103830;1279;65966;-38
2023/11/03 02:52:42;;;;;;;2.90;1.70;;;;;;;18.78;60.32;96781.55;103764;1278;72458;-38
2023/11/03 02:55:09;;;;;;;1.60;1.50;;;;;;;18.77;60.35;96778.99;103669;1282;62079;-38
2023/11/03 02:57:35;;;;;;;2.10;1.60;;;;;;;18.76;60.32;96774.40;103659;1280;62181;-38
2023/11/03 03:00:04;;;;;;;2.10;1.70;;;;;;;18.77;60.39;96773.41;103681;1282;75963;-38
2023/11/03 03:02:31;;;;;;;2.20;2.00;;;;;;;18.77;60.36;96770.84;103572;1280;66604;-38
2023/11/03 03:04:58;;;;;;;1.70;1.60;;;;;;;18.77;60.33;96775.34;103546;1278;72714;-38
2023/11/03 03:07:24;;;;;;;1.70;1.60;;;;;;;18.76;60.30;96777.89;103441;1280;62082;-38
2023/11/03 03:09:51;;;;;;;1.70;1.60;;;;;;;18.76;60.37;96779.14;103504;1280;62087;-38
2023/11/03 03:12:18;;;;;;;1.60;1.50;;;;;;;18.76;60.34;96771.00;103447;1280;75675;-38
2023/11/03 03:14:44;;;;;;;2.20;1.70;;;;;;;18.76;60.22;96774.95;103501;1282;62095;-38
2023/11/03 03:17:11;;;;;;;2.20;1.70;;;;;;;18.76;60.31;96777.89;103514;1279;72486;-38
2023/11/03 03:19:38;;;;;;;2.00;1.80;;;;;;;18.76;60.31;96769.45;103415;1283;62155;-38
2023/11/03 03:22:05;;;;;;;2.20;1.90;;;;;;;18.76;60.28;96773.55;103581;1280;62216;-38
2023/11/03 03:24:31;;;;;;;2.20;1.90;;;;;;;18.76;60.28;96779.83;103295;1280;76454;-38
2023/11/03 03:26:58;;;;;;;1.90;1.70;;;;;;;18.76;60.28;96782.77;103434;1280;65181;-38
2023/11/03 03:29:24;;;;;;;2.10;1.80;;;;;;;18.76;60.26;96776.88;103446;1280;72710;-38
2023/11/03 03:31:51;;;;;;;2.40;1.50;;;;;;;18.75;60.18;96768.80;103809;1282;62211;-38
2023/11/03 03:34:18;;;;;;;2.00;1.80;;;;;;;18.75;60.30;96761.05;103655;1280;62113;-38
2023/11/03 03:36:45;;;;;;;1.70;1.60;;;;;;;18.76;60.25;96758.44;103835;1280;75510;-40
2023/11/03 03:39:13;;;;;;;1.60;1.50;;;;;;;18.76;60.18;96761.53;104157;1282;66046;-39
2023/11/03 03:41:39;;;;;;;3.70;1.60;;;;;;;18.75;60.22;96761.98;104312;1280;72609;-38
2023/11/03 03:44:06;;;;;;;2.00;1.70;;;;;;;18.75;60.25;96758.04;103547;1282;62083;-41
2023/11/03 03:46:37;;;;;;;1.80;1.50;;;;;;;18.75;60.23;96756.56;103874;1280;62103;-41
2023/11/03 03:49:05;;;;;;;1.90;1.60;;;;;;;18.75;60.21;96751.68;103774;1280;75944;-39
2023/11/03 03:51:33;;;;;;;1.70;1.60;;;;;;;18.75;60.11;96755.55;103573;1285;66207;-39
2023/11/03 03:54:00;;;;;;;1.90;1.70;;;;;;;18.75;60.16;96756.09;103505;1280;72782;-39
2023/11/03 03:56:26;;;;;;;1.80;1.60;;;;;;;18.75;60.17;96754.01;103471;1282;62084;-39
2023/11/03 03:58:53;;;;;;;2.60;1.70;;;;;;;18.75;60.16;96744.88;103450;1280;62193;-38
2023/11/03 04:01:21;;;;;;;1.90;1.60;;;;;;;18.75;60.13;96734.56;103691;1280;75521;-39
2023/11/03 04:03:48;;;;;;;2.00;1.50;;;;;;;18.75;60.22;96729.75;103481;1282;66107;-39
2023/11/03 04:06:15;;;;;;;2.00;1.60;;;;;;;18.74;60.18;96725.64;103555;1280;72764;-39
2023/11/03 04:08:42;;;;;;;2.10;1.50;;;;;;;18.75;60.20;96726.41;103592;1282;62018;-39
2023/11/03 04:11:12;;;;;;;2.60;1.90;;;;;;;18.74;60.08;96722.93;103707;1280;62140;-38
2023/11/03 04:13:39;;;;;;;1.90;1.70;;;;;;;18.75;60.01;96721.15;103804;1280;75336;-39
2023/11/03 04:16:09;;;;;;;2.30;1.60;;;;;;;18.75;60.09;96722.61;103798;1282;66104;-39
2023/11/03 04:18:39;;;;;;;1.80;1.50;;;;;;;18.75;59.98;96719.29;103809;1281;72445;-39
2023/11/03 04:21:06;;;;;;;2.50;1.80;;;;;;;18.74;60.13;96721.77;103834;1282;62117;-39
2023/11/03 04:23:32;;;;;;;2.10;1.80;;;;;;;18.73;60.05;96719.66;103616;1280;62194;-39
2023/11/03 04:25:59;;;;;;;1.80;1.70;;;;;;;18.74;60.05;96721.69;103438;1280;75245;-39
2023/11/03 04:28:25;;;;;;;2.00;1.60;;;;;;;18.73;59.96;96717.27;103479;1282;66110;-39
2023/11/03 04:30:52;;;;;;;1.90;1.50;;;;;;;18.73;60.07;96720.36;103605;1280;72728;-39
2023/11/03 04:33:19;;;;;;;1.80;1.60;;;;;;;18.73;60.09;96711.73;103559;1280;62063;-40
2023/11/03 04:35:45;;;;;;;2.00;1.80;;;;;;;18.73;60.04;96711.21;103768;1280;62146;-39
2023/11/03 04:38:12;;;;;;;1.60;1.40;;;;;;;18.73;60.03;96707.02;103575;1280;75332;-40
2023/11/03 04:40:39;;;;;;;1.80;1.50;;;;;;;18.72;60.02;96701.37;103789;1282;66148;-37
2023/11/03 04:43:05;;;;;;;2.10;1.50;;;;;;;18.72;59.96;96693.94;103364;1280;73712;-39
2023/11/03 04:45:32;;;;;;;1.70;1.60;;;;;;;18.73;60.04;96691.98;103740;1282;62065;-39
2023/11/03 04:47:58;;;;;;;1.90;1.60;;;;;;;18.72;60.00;96690.60;103441;1280;62183;-39
2023/11/03 04:50:25;;;;;;;2.30;1.60;;;;;;;18.72;59.99;96690.83;103507;1280;75876;-39
2023/11/03 04:52:52;;;;;;;2.70;1.70;;;;;;;18.71;59.95;96686.25;103649;1280;65517;-39
2023/11/03 04:55:19;;;;;;;1.70;1.60;;;;;;;18.72;59.96;96689.04;103450;1280;72634;-38
2023/11/03 04:57:46;;;;;;;2.00;1.80;;;;;;;18.72;59.95;96689.21;103509;1282;62137;-39
2023/11/03 05:00:13;;;;;;;1.90;1.70;;;;;;;18.72;60.05;96691.91;103753;1280;62213;-38
2023/11/03 05:02:40;;;;;;;2.50;1.60;;;;;;;18.71;60.04;96683.23;103801;1282;75546;-38
2023/11/03 05:05:09;;;;;;;3.20;1.80;;;;;;;18.71;60.05;96684.63;103650;1282;66268;-39
2023/11/03 05:07:38;;;;;;;1.30;1.20;;;;;;;18.71;59.99;96686.23;103598;1280;72039;-38
2023/11/03 05:10:06;;;;;;;1.90;1.50;;;;;;;18.70;59.99;96680.34;103460;1282;62083;-38
2023/11/03 05:12:33;;;;;;;1.40;1.30;;;;;;;18.70;60.06;96682.67;103603;1280;62203;-39
2023/11/03 05:15:00;;;;;;;1.70;1.60;;;;;;;18.71;59.94;96685.70;103385;1282;75793;-39
2023/11/03 05:17:26;;;;;;;1.80;1.60;;;;;;;18.71;59.97;96677.34;103694;1280;66230;-40
2023/11/03 05:19:53;;;;;;;1.60;1.50;;;;;;;18.70;59.81;96679.58;103605;1280;72097;-38
2023/11/03 05:22:20;;;;;;;1.60;1.50;;;;;;;18.70;59.88;96673.22;103834;1282;62161;-38
2023/11/03 05:24:46;;;;;;;1.80;1.30;;;;;;;18.70;59.96;96669.19;103806;1280;62219;-39
2023/11/03 05:27:13;;;;;;;1.80;1.60;;;;;;;18.70;59.95;96672.67;103612;1280;75443;-40
2023/11/03 05:29:40;;;;;;;2.10;1.80;;;;;;;18.70;59.85;96663.45;103433;1280;65847;-39
2023/11/03 05:32:06;;;;;;;1.70;1.60;;;;;;;18.70;59.92;96661.20;103510;1280;72346;-39
2023/11/03 05:34:34;;;;;;;1.60;1.40;;;;;;;18.70;59.87;96663.45;103504;1282;62089;-37
2023/11/03 05:37:01;;;;;;;2.30;1.50;;;;;;;18.70;59.88;96660.20;103538;1279;62139;-40
2023/11/03 05:39:28;;;;;;;1.60;1.50;;;;;;;18.70;59.89;96660.98;103451;1282;75233;-39
2023/11/03 05:41:54;;;;;;;1.90;1.50;;;;;;;18.70;59.90;96657.87;103512;1280;66285;-38
2023/11/03 05:44:21;;;;;;;1.90;1.80;;;;;;;18.69;59.82;96657.10;103523;1280;72081;-38
2023/11/03 05:46:48;;;;;;;1.70;1.60;;;;;;;18.70;59.92;96654.00;103486;1282;61974;-38
2023/11/03 05:49:15;;;;;;;1.20;1.10;;;;;;;18.69;59.86;96651.75;103467;1280;62107;-38
2023/11/03 05:51:42;;;;;;;1.50;1.20;;;;;;;18.70;59.86;96650.35;103430;1282;74408;-37
2023/11/03 05:54:09;;;;;;;1.70;1.60;;;;;;;18.69;59.85;96645.39;103325;1282;65765;-37
2023/11/03 05:56:38;;;;;;;1.80;1.40;;;;;;;18.69;59.85;96646.87;103449;1279;73422;-39
2023/11/03 05:59:05;;;;;;;1.80;1.20;;;;;;;18.69;59.80;96642.76;103456;1279;62133;-38
2023/11/03 06:01:33;;;;;;;1.60;1.50;;;;;;;18.69;59.78;96642.06;103425;1279;62120;-38
2023/11/03 06:04:00;;;;;;;3.00;1.70;;;;;;;18.69;59.86;96642.60;105151;1280;75618;-38
2023/11/03 06:06:27;;;;;;;2.00;1.40;;;;;;;18.70;59.79;96639.36;103532;1280;66622;-38
2023/11/03 06:08:55;;;;;;;1.80;1.50;;;;;;;18.69;59.86;96629.83;105028;1282;71859;-37
2023/11/03 06:11:22;;;;;;;1.90;1.60;;;;;;;18.69;60.18;96623.62;103946;1282;62417;-36
2023/11/03 06:13:51;;;;;;;2.00;1.60;;;;;;;18.68;60.52;96621.75;106211;1282;60249;-38
2023/11/03 06:16:20;;;;;;;2.50;2.00;;;;;;;18.69;60.67;96620.98;103427;1282;75494;-40
2023/11/03 06:18:48;;;;;;;2.20;1.60;;;;;;;18.70;60.77;96622.08;103967;1282;66311;-39
2023/11/03 06:21:19;;;;;;;3.30;1.50;;;;;;;18.72;60.67;96617.13;104717;1280;72466;-39
2023/11/03 06:23:46;;;;;;;2.80;1.80;;;;;;;18.73;60.65;96614.74;103428;1282;62098;-38
2023/11/03 06:26:13;;;;;;;3.20;1.60;;;;;;;18.73;60.60;96609.09;104609;1280;62100;-39
2023/11/03 06:28:39;;;;;;;2.10;1.50;;;;;;;18.74;60.57;96601.33;103547;1280;74947;-40
2023/11/03 06:31:07;;;;;;;2.00;1.40;;;;;;;18.75;60.48;96592.36;103311;1282;66174;-37
2023/11/03 06:33:34;;;;;;;1.90;1.70;;;;;;;18.75;60.43;96586.77;106852;1280;72675;-39
2023/11/03 06:36:02;;;;;;;1.90;1.70;;;;;;;18.76;60.34;96587.41;103220;1280;64699;-36
2023/11/03 06:38:29;;;;;;;2.40;1.70;;;;;;;18.76;60.47;96581.52;103492;1280;62887;-40
2023/11/03 06:40:58;;;;;;;2.50;1.80;;;;;;;18.76;60.81;96582.14;103792;1280;75642;-44
2023/11/03 06:43:25;;;;;;;3.00;1.60;;;;;;;18.81;61.37;96578.92;103705;1282;65864;-41
2023/11/03 06:45:51;;;;;;;1.80;1.50;;;;;;;18.87;61.72;96578.27;103609;1279;72571;-46
2023/11/03 06:48:18;;;;;;;4.00;2.00;;;;;;;18.93;61.68;96574.42;103645;1282;62104;-45
2023/11/03 06:50:45;;;;;;;2.10;1.60;;;;;;;18.99;61.66;96571.28;103452;1282;62155;-45
2023/11/03 06:53:11;;;;;;;3.30;1.80;;;;;;;19.04;61.54;96570.94;103738;1280;62107;-43
2023/11/03 06:55:38;;;;;;;3.00;1.70;;;;;;;19.07;61.37;96568.71;103903;1279;65192;-38
2023/11/03 06:58:05;;;;;;;2.70;1.80;;;;;;;19.11;61.57;96572.45;103723;1279;72360;-39
2023/11/03 07:00:34;;;;;;;3.80;2.00;;;;;;;19.14;61.71;96573.88;104046;1282;62010;-43
2023/11/03 07:03:01;;;;;;;4.80;1.90;;;;;;;19.17;61.76;96583.88;103408;1279;62180;-43
2023/11/03 07:05:30;;;;;;;2.40;1.60;;;;;;;19.19;61.86;96593.27;103420;1280;76740;-43
2023/11/03 07:07:57;;;;;;;3.80;1.90;;;;;;;19.20;61.88;96599.26;103463;1284;65473;-40
2023/11/03 07:10:24;;;;;;;7.00;2.10;;;;;;;19.22;61.82;96595.30;103926;1280;71913;-40
2023/11/03 07:12:51;;;;;;;2.50;1.80;;;;;;;19.24;61.78;96594.32;103664;1280;62600;-40
2023/11/03 07:15:18;;;;;;;3.10;1.80;;;;;;;19.25;61.82;96596.57;103407;1282;62187;-40
2023/11/03 07:17:45;;;;;;;2.50;1.60;;;;;;;19.26;61.88;96597.19;103349;1279;75446;-39
2023/11/03 07:20:14;;;;;;;2.00;1.50;;;;;;;19.28;61.84;96608.21;104271;1282;67130;-43
2023/11/03 07:22:41;;;;;;;3.20;1.60;;;;;;;19.29;61.80;96607.36;104886;1279;72130;-43
2023/11/03 07:25:09;;;;;;;5.60;1.90;;;;;;;19.31;61.74;96599.24;104247;1284;62813;-39
2023/11/03 07:27:37;;;;;;;2.60;1.70;;;;;;;19.31;61.66;96607.15;103609;1280;62081;-40
2023/11/03 07:30:05;;;;;;;2.90;1.50;;;;;;;19.31;61.62;96604.43;105141;1279;75803;-39
2023/11/03 07:32:32;;;;;;;4.70;2.10;;;;;;;19.30;61.45;96604.65;103417;1280;66567;-40
2023/11/03 07:35:03;;;;;;;4.70;1.90;;;;;;;19.29;61.35;96597.75;103355;1280;72551;-40
2023/11/03 07:37:30;;;;;;;3.30;2.00;;;;;;;19.28;61.26;96596.36;103398;1282;62096;-41
2023/11/03 07:39:57;;;;;;;2.10;1.70;;;;;;;19.28;61.14;96593.40;103351;1280;62111;-40
2023/11/03 07:42:24;;;;;;;2.30;1.60;;;;;;;19.27;61.04;96591.45;103327;1284;75470;-39
2023/11/03 07:44:52;;;;;;;3.30;1.80;;;;;;;19.26;60.97;96587.97;103422;1283;64421;-39
2023/11/03 07:47:18;;;;;;;3.10;1.60;;;;;;;19.25;60.95;96587.34;103483;1279;72666;-41
2023/11/03 07:49:46;;;;;;;3.70;1.60;;;;;;;19.25;60.99;96582.23;103582;1282;62076;-40
2023/11/03 07:52:13;;;;;;;2.60;1.50;;;;;;;19.25;60.95;96573.76;103515;1282;62191;-41
2023/11/03 07:54:40;;;;;;;4.20;1.90;;;;;;;19.26;60.85;96570.05;105197;1281;76288;-38
2023/11/03 07:57:06;;;;;;;4.20;1.60;;;;;;;19.27;60.73;96563.70;103676;1280;66120;-40
2023/11/03 07:59:33;;;;;;;3.00;1.80;;;;;;;19.28;60.71;96559.60;103522;1280;72557;-40
2023/11/03 08:02:00;;;;;;;2.90;1.90;;;;;;;19.30;60.72;96555.88;103600;1282;62089;-41
2023/11/03 08:04:27;;;;;;;4.20;1.70;;;;;;;19.31;60.94;96546.20;103726;1280;62700;-40
2023/11/03 08:06:55;;;;;;;3.70;1.80;;;;;;;19.31;61.12;96540.77;103289;1286;76344;-40
2023/11/03 08:09:21;;;;;;;3.50;1.60;;;;;;;19.33;61.17;96529.20;103524;1280;66148;-38
2023/11/03 08:11:48;;;;;;;5.20;1.50;;;;;;;19.33;61.28;96527.89;103622;1280;71401;-39
2023/11/03 08:14:14;;;;;;;2.90;1.70;;;;;;;19.34;61.20;96522.61;103475;1280;61973;-40
2023/11/03 08:16:44;;;;;;;3.40;1.60;;;;;;;19.34;61.32;96522.00;103516;1280;62156;-40
2023/11/03 08:19:12;;;;;;;2.90;1.80;;;;;;;19.35;61.43;96523.12;103549;1283;75240;-39
2023/11/03 08:21:41;;;;;;;2.40;1.50;;;;;;;19.35;61.37;96519.98;103684;1280;66147;-43
2023/11/03 08:24:13;;;;;;;1.50;1.40;;;;;;;19.36;61.43;96516.54;103552;1280;72734;-40
2023/11/03 08:26:40;;;;;;;2.60;1.40;;;;;;;19.36;61.40;96509.80;103553;1280;62087;-43
2023/11/03 08:29:08;;;;;;;7.40;1.70;;;;;;;19.36;61.51;96506.99;103551;1280;62190;-44
2023/11/03 08:31:35;;;;;;;2.20;1.50;;;;;;;19.36;61.57;96508.39;103427;1282;75621;-44
2023/11/03 08:34:04;;;;;;;3.50;1.70;;;;;;;19.37;61.56;96514.21;103554;1285;65043;-45
2023/11/03 08:36:34;;;;;;;2.00;1.50;;;;;;;19.38;61.32;96518.02;103587;1280;72573;-39
2023/11/03 08:39:02;;;;;;;2.50;1.40;;;;;;;19.39;61.49;96521.35;103498;1282;62075;-38
2023/11/03 08:41:29;;;;;;;2.30;1.60;;;;;;;19.40;61.53;96522.45;103603;1280;62120;-40
2023/11/03 08:43:56;;;;;;;2.30;1.40;;;;;;;19.40;61.42;96518.03;103550;1283;75394;-41
2023/11/03 08:46:23;;;;;;;2.90;1.60;;;;;;;19.40;61.43;96517.41;103497;1280;67163;-40
2023/11/03 08:48:50;;;;;;;3.50;1.40;;;;;;;19.40;61.55;96522.91;103530;1282;72653;-40
2023/11/03 08:51:18;;;;;;;6.10;1.60;;;;;;;19.41;61.50;96519.95;103469;1282;185938;-38
2023/11/03 08:53:44;;;;;;;2.80;1.60;;;;;;;19.41;61.61;96510.80;103737;1282;62201;-38
2023/11/03 08:56:14;;;;;;;1.80;1.50;;;;;;;19.41;61.59;96502.42;103537;1283;76879;-38
2023/11/03 08:58:41;;;;;;;3.80;1.90;;;;;;;19.41;61.52;96496.23;103737;1283;67019;-38
2023/11/03 09:01:09;;;;;;;2.70;1.60;;;;;;;19.41;61.43;96499.56;104220;1280;73372;-41
2023/11/03 09:03:37;;;;;;;2.30;1.70;;;;;;;19.41;61.39;96503.29;104765;1282;62203;-39
2023/11/03 09:06:05;;;;;;;1.80;1.40;;;;;;;19.41;61.52;96503.13;106539;1279;59654;-44
2023/11/03 09:08:39;;;;;;;2.10;1.60;;;;;;;19.42;61.38;96492.34;105485;1282;74081;-40
2023/11/03 09:11:06;;;;;;;3.20;1.50;;;;;;;19.43;61.30;96482.12;103596;1280;66312;-39
2023/11/03 09:13:32;;;;;;;2.90;1.60;;;;;;;19.45;61.09;96479.56;103680;1283;73009;-42
2023/11/03 09:16:00;;;;;;;2.80;1.50;;;;;;;19.47;61.08;96477.55;103447;1283;62146;-42
2023/11/03 09:18:27;;;;;;;2.30;1.30;;;;;;;19.49;61.00;96476.63;103500;1283;62201;-43
2023/11/03 09:20:54;;;;;;;4.00;1.50;;;;;;;19.49;60.99;96469.49;103538;1282;75455;-42
2023/11/03 09:23:21;;;;;;;2.20;1.70;;;;;;;19.50;61.07;96471.20;103576;1280;66684;-45
2023/11/03 09:25:48;;;;;;;2.30;1.40;;;;;;;19.51;61.09;96461.05;103682;1280;72686;-44
2023/11/03 09:28:14;;;;;;;3.90;1.60;;;;;;;19.51;61.19;96459.50;103584;1282;62415;-44
2023/11/03 09:30:42;;;;;;;2.80;1.50;;;;;;;19.52;61.20;96465.86;103570;1282;62139;-39
2023/11/03 09:33:08;;;;;;;2.80;1.50;;;;;;;19.52;61.12;96464.77;103512;1282;75392;-41
2023/11/03 09:35:35;;;;;;;2.00;1.60;;;;;;;19.52;61.10;96457.32;103745;1283;65732;-37
2023/11/03 09:38:03;;;;;;;1.90;1.30;;;;;;;19.53;61.04;96457.17;103535;1280;73590;-39
2023/11/03 09:40:31;;;;;;;2.50;1.20;;;;;;;19.53;61.09;96451.11;104471;1282;62194;-41
2023/11/03 09:42:58;;;;;;;2.20;1.30;;;;;;;19.53;61.18;96450.34;103518;1280;62207;-42
2023/11/03 09:45:27;;;;;;;1.70;1.20;;;;;;;19.54;61.27;96445.45;103712;1280;76186;-38
2023/11/03 09:47:53;;;;;;;4.50;1.50;;;;;;;19.53;61.22;96432.34;103527;1285;66893;-38
2023/11/03 09:50:21;;;;;;;2.50;1.70;;;;;;;19.53;61.26;96423.73;103732;1280;73788;-38
2023/11/03 09:52:49;;;;;;;2.30;1.50;;;;;;;19.53;61.11;96425.52;103591;1282;62086;-41
2023/11/03 09:55:21;;;;;;;3.20;1.30;;;;;;;19.51;61.14;96415.03;103358;1283;62145;-39
2023/11/03 09:57:53;;;;;;;3.00;1.60;;;;;;;19.50;60.99;96417.67;103713;1282;75675;-40
2023/11/03 10:00:22;;;;;;;1.80;1.30;;;;;;;19.49;60.94;96424.27;103690;1283;66866;-38
2023/11/03 10:02:49;;;;;;;2.20;1.70;;;;;;;19.48;60.93;96417.81;103538;1282;73272;-38
2023/11/03 10:05:17;;;;;;;1.80;1.50;;;;;;;19.48;60.97;96420.37;103601;1282;62069;-39
2023/11/03 10:07:55;;;;;;;1.90;1.40;;;;;;;19.48;61.05;96411.38;103652;1279;62154;-40
2023/11/03 10:10:22;;;;;;;2.20;1.20;;;;;;;19.47;61.16;96403.86;103940;1285;76252;-37
2023/11/03 10:12:49;;;;;;;4.30;1.60;;;;;;;19.46;61.38;96406.88;103600;1280;66991;-36
2023/11/03 10:15:16;;;;;;;2.80;1.40;;;;;;;19.47;61.34;96408.05;103494;1280;72557;-36
2023/11/03 10:17:45;;;;;;;6.40;1.50;;;;;;;19.46;61.44;96397.80;103574;1282;62133;-38
2023/11/03 10:20:12;;;;;;;1.80;1.40;;;;;;;19.46;61.52;96397.57;103596;1282;62137;-38
2023/11/03 10:22:39;;;;;;;3.80;1.60;;;;;;;19.46;61.35;96400.13;103436;1285;76349;-40
2023/11/03 10:25:08;;;;;;;3.10;1.70;;;;;;;19.47;61.24;96396.79;103569;1282;67017;-40
2023/11/03 10:27:37;;;;;;;2.00;1.50;;;;;;;19.47;61.04;96397.88;103590;1280;73618;-40
2023/11/03 10:30:05;;;;;;;2.60;1.60;;;;;;;19.47;61.07;96396.57;103728;1283;62120;-44
2023/11/03 10:32:33;;;;;;;2.00;1.50;;;;;;;19.46;61.06;96397.11;103676;1280;62002;-37
2023/11/03 10:35:05;;;;;;;4.90;1.80;;;;;;;19.46;60.87;96399.59;103445;1282;76170;-39
2023/11/03 10:37:34;;;;;;;2.30;1.50;;;;;;;19.46;60.85;96393.30;103440;1283;66062;-38
2023/11/03 10:40:02;;;;;;;2.60;1.50;;;;;;;19.46;60.98;96383.30;103471;1280;72552;-40
2023/11/03 10:42:35;;;;;;;1.50;1.40;;;;;;;19.46;60.99;96387.25;103414;1285;62263;-40
2023/11/03 10:45:04;;;;;;;2.70;1.40;;;;;;;19.46;61.02;96377.24;103403;1282;62133;-39
2023/11/03 10:47:40;;;;;;;3.20;1.70;;;;;;;19.46;61.10;96379.49;103553;1279;76132;-41
2023/11/03 10:50:09;;;;;;;2.00;1.50;;;;;;;19.47;61.16;96380.20;103378;1280;66464;-41
2023/11/03 10:52:41;;;;;;;2.70;1.60;;;;;;;19.46;61.16;96383.29;103347;1280;72494;-40
2023/11/03 10:55:12;;;;;;;3.20;1.90;;;;;;;19.46;61.16;96388.80;103332;1286;62212;-42
2023/11/03 10:57:40;;;;;;;2.10;1.50;;;;;;;19.45;61.21;96397.71;104532;1281;62130;-40
2023/11/03 11:00:24;;;;;;;2.90;1.50;;;;;;;19.46;61.18;96404.63;103806;1279;76459;-41
2023/11/03 11:03:03;;;;;;;2.40;1.60;;;;;;;19.45;61.22;96407.89;103633;1283;67388;-43
2023/11/03 11:05:55;;;;;;;2.70;1.40;;;;;;;19.45;61.15;96409.29;103838;1279;74003;-39
2023/11/03 11:08:22;;;;;;;1.30;1.20;;;;;;;19.44;61.17;96410.06;103123;1280;62333;-40
2023/11/03 11:10:48;;;;;;;1.70;1.40;;;;;;;19.44;61.20;96405.94;103508;1280;62099;-40
2023/11/03 11:13:19;;;;;;;1.80;1.50;;;;;;;19.44;61.10;96398.50;103414;1278;75153;-40
2023/11/03 11:15:56;;;;;;;5.50;1.50;;;;;;;19.43;61.11;96394.92;103709;1280;68255;-40
2023/11/03 11:18:29;;;;;;;3.40;1.60;;;;;;;19.42;61.03;96385.63;103798;1283;72654;-39
2023/11/03 11:21:01;;;;;;;2.10;1.60;;;;;;;19.41;60.90;96385.84;103578;1283;62101;-40
2023/11/03 11:23:31;;;;;;;1.50;1.20;;;;;;;19.40;61.04;96382.52;103230;1284;62018;-40
2023/11/03 11:25:58;;;;;;;2.60;1.60;;;;;;;19.40;60.95;96380.18;103588;1282;75733;-40